sensor_id;sensor_type;location;lat;lon;timestamp;P1;durP1;ratioP1;P2;durP2;ratioP2
37645;SDS011;23489;49.600;6.138;2023-04-16T00:00:47;3.33;;;2.17;;
37645;SDS011;23489;49.600;6.138;2023-04-16T00:03:13;4.82;;;2.58;;
37645;SDS011;23489;49.600;6.138;2023-04-16T00:05:40;4.15;;;2.60;;
37645;SDS011;23489;49.600;6.138;2023-04-16T00:08:05;3.35;;;2.90;;
37645;SDS011;23489;49.600;6.138;2023-04-16T00:10:31;3.53;;;2.42;;
37645;SDS011;23489;49.600;6.138;2023-04-16T00:15:23;4.50;;;3.10;;
37645;SDS011;23489;49.600;6.138;2023-04-16T00:17:49;4.85;;;2.75;;
37645;SDS011;23489;49.600;6.138;2023-04-16T00:20:14;3.25;;;2.35;;
37645;SDS011;23489;49.600;6.138;2023-04-16T00:22:40;4.53;;;2.50;;
37645;SDS011;23489;49.600;6.138;2023-04-16T00:25:06;3.03;;;2.30;;
37645;SDS011;23489;49.600;6.138;2023-04-16T00:27:31;2.90;;;2.60;;
37645;SDS011;23489;49.600;6.138;2023-04-16T00:29:57;3.97;;;2.50;;
37645;SDS011;23489;49.600;6.138;2023-04-16T00:32:23;5.43;;;2.50;;
37645;SDS011;23489;49.600;6.138;2023-04-16T00:34:48;2.95;;;2.47;;
37645;SDS011;23489;49.600;6.138;2023-04-16T00:37:14;4.03;;;2.10;;
37645;SDS011;23489;49.600;6.138;2023-04-16T00:39:39;2.53;;;1.95;;
37645;SDS011;23489;49.600;6.138;2023-04-16T00:42:05;2.33;;;2.10;;
37645;SDS011;23489;49.600;6.138;2023-04-16T00:44:31;2.20;;;2.00;;
37645;SDS011;23489;49.600;6.138;2023-04-16T00:49:26;4.10;;;2.00;;
37645;SDS011;23489;49.600;6.138;2023-04-16T00:51:52;2.60;;;1.85;;
37645;SDS011;23489;49.600;6.138;2023-04-16T00:54:18;2.28;;;1.75;;
37645;SDS011;23489;49.600;6.138;2023-04-16T00:56:44;2.35;;;1.52;;
37645;SDS011;23489;49.600;6.138;2023-04-16T00:59:13;2.95;;;1.60;;
37645;SDS011;23489;49.600;6.138;2023-04-16T01:01:39;1.85;;;1.70;;
37645;SDS011;23489;49.600;6.138;2023-04-16T01:04:05;1.77;;;1.50;;
37645;SDS011;23489;49.600;6.138;2023-04-16T01:06:31;3.38;;;1.60;;
37645;SDS011;23489;49.600;6.138;2023-04-16T01:08:56;3.33;;;1.65;;
37645;SDS011;23489;49.600;6.138;2023-04-16T01:11:22;1.60;;;1.30;;
37645;SDS011;23489;49.600;6.138;2023-04-16T01:13:48;1.60;;;1.50;;
37645;SDS011;23489;49.600;6.138;2023-04-16T01:16:13;1.40;;;1.30;;
37645;SDS011;23489;49.600;6.138;2023-04-16T01:18:40;1.50;;;1.40;;
37645;SDS011;23489;49.600;6.138;2023-04-16T01:21:05;1.42;;;1.33;;
37645;SDS011;23489;49.600;6.138;2023-04-16T01:28:22;1.40;;;1.30;;
37645;SDS011;23489;49.600;6.138;2023-04-16T01:30:48;1.63;;;1.52;;
37645;SDS011;23489;49.600;6.138;2023-04-16T01:33:21;1.55;;;1.45;;
37645;SDS011;23489;49.600;6.138;2023-04-16T01:35:47;1.60;;;1.48;;
37645;SDS011;23489;49.600;6.138;2023-04-16T01:38:14;3.28;;;1.60;;
37645;SDS011;23489;49.600;6.138;2023-04-16T01:40:40;2.00;;;1.60;;
37645;SDS011;23489;49.600;6.138;2023-04-16T01:43:05;1.80;;;1.70;;
37645;SDS011;23489;49.600;6.138;2023-04-16T01:45:31;2.00;;;1.80;;
37645;SDS011;23489;49.600;6.138;2023-04-16T01:47:57;1.90;;;1.65;;
37645;SDS011;23489;49.600;6.138;2023-04-16T01:50:23;1.98;;;1.83;;
37645;SDS011;23489;49.600;6.138;2023-04-16T01:52:49;2.45;;;2.25;;
37645;SDS011;23489;49.600;6.138;2023-04-16T01:55:14;2.97;;;2.45;;
37645;SDS011;23489;49.600;6.138;2023-04-16T01:57:40;2.28;;;2.08;;
37645;SDS011;23489;49.600;6.138;2023-04-16T02:00:06;2.60;;;1.95;;
37645;SDS011;23489;49.600;6.138;2023-04-16T02:02:43;2.13;;;1.92;;
37645;SDS011;23489;49.600;6.138;2023-04-16T02:05:12;2.67;;;2.05;;
37645;SDS011;23489;49.600;6.138;2023-04-16T02:07:37;3.15;;;1.92;;
37645;SDS011;23489;49.600;6.138;2023-04-16T02:10:03;2.40;;;2.20;;
37645;SDS011;23489;49.600;6.138;2023-04-16T02:12:30;1.83;;;1.73;;
37645;SDS011;23489;49.600;6.138;2023-04-16T02:14:56;2.30;;;2.10;;
37645;SDS011;23489;49.600;6.138;2023-04-16T02:17:24;2.13;;;1.92;;
37645;SDS011;23489;49.600;6.138;2023-04-16T02:20:02;2.33;;;1.92;;
37645;SDS011;23489;49.600;6.138;2023-04-16T02:22:33;2.58;;;2.20;;
37645;SDS011;23489;49.600;6.138;2023-04-16T02:24:58;2.70;;;2.10;;
37645;SDS011;23489;49.600;6.138;2023-04-16T02:27:24;3.65;;;2.45;;
37645;SDS011;23489;49.600;6.138;2023-04-16T02:29:55;2.33;;;2.13;;
37645;SDS011;23489;49.600;6.138;2023-04-16T02:32:21;5.13;;;2.30;;
37645;SDS011;23489;49.600;6.138;2023-04-16T02:34:47;2.65;;;2.45;;
37645;SDS011;23489;49.600;6.138;2023-04-16T02:37:14;3.40;;;2.45;;
37645;SDS011;23489;49.600;6.138;2023-04-16T02:39:39;3.88;;;2.42;;
37645;SDS011;23489;49.600;6.138;2023-04-16T02:42:06;3.65;;;2.40;;
37645;SDS011;23489;49.600;6.138;2023-04-16T02:44:33;2.90;;;2.60;;
37645;SDS011;23489;49.600;6.138;2023-04-16T02:46:58;3.97;;;2.83;;
37645;SDS011;23489;49.600;6.138;2023-04-16T02:49:24;6.15;;;4.32;;
37645;SDS011;23489;49.600;6.138;2023-04-16T02:51:50;8.35;;;4.30;;
37645;SDS011;23489;49.600;6.138;2023-04-16T02:54:15;7.00;;;5.55;;
37645;SDS011;23489;49.600;6.138;2023-04-16T02:56:41;5.57;;;3.03;;
37645;SDS011;23489;49.600;6.138;2023-04-16T02:59:06;3.13;;;2.83;;
37645;SDS011;23489;49.600;6.138;2023-04-16T03:01:32;4.88;;;3.85;;
37645;SDS011;23489;49.600;6.138;2023-04-16T03:03:58;5.70;;;3.40;;
37645;SDS011;23489;49.600;6.138;2023-04-16T03:06:23;4.93;;;3.10;;
37645;SDS011;23489;49.600;6.138;2023-04-16T03:08:50;3.78;;;2.45;;
37645;SDS011;23489;49.600;6.138;2023-04-16T03:11:15;3.42;;;2.53;;
37645;SDS011;23489;49.600;6.138;2023-04-16T03:13:42;3.13;;;2.67;;
37645;SDS011;23489;49.600;6.138;2023-04-16T03:16:08;2.60;;;2.38;;
37645;SDS011;23489;49.600;6.138;2023-04-16T03:18:34;2.70;;;2.50;;
37645;SDS011;23489;49.600;6.138;2023-04-16T03:21:00;3.97;;;2.38;;
37645;SDS011;23489;49.600;6.138;2023-04-16T03:23:26;3.33;;;2.40;;
37645;SDS011;23489;49.600;6.138;2023-04-16T03:25:52;3.42;;;2.33;;
37645;SDS011;23489;49.600;6.138;2023-04-16T03:28:17;3.67;;;2.50;;
37645;SDS011;23489;49.600;6.138;2023-04-16T03:30:48;2.97;;;2.40;;
37645;SDS011;23489;49.600;6.138;2023-04-16T03:33:15;3.13;;;2.40;;
37645;SDS011;23489;49.600;6.138;2023-04-16T03:35:41;3.15;;;2.28;;
37645;SDS011;23489;49.600;6.138;2023-04-16T03:38:06;2.50;;;2.17;;
37645;SDS011;23489;49.600;6.138;2023-04-16T03:40:32;3.03;;;2.42;;
37645;SDS011;23489;49.600;6.138;2023-04-16T03:42:58;3.00;;;2.20;;
37645;SDS011;23489;49.600;6.138;2023-04-16T03:45:25;2.53;;;2.33;;
37645;SDS011;23489;49.600;6.138;2023-04-16T03:47:51;3.70;;;2.70;;
37645;SDS011;23489;49.600;6.138;2023-04-16T03:50:19;3.67;;;2.63;;
37645;SDS011;23489;49.600;6.138;2023-04-16T03:52:46;2.72;;;2.35;;
37645;SDS011;23489;49.600;6.138;2023-04-16T03:55:13;3.65;;;2.55;;
37645;SDS011;23489;49.600;6.138;2023-04-16T03:57:39;2.90;;;2.40;;
37645;SDS011;23489;49.600;6.138;2023-04-16T04:00:09;3.38;;;2.63;;
37645;SDS011;23489;49.600;6.138;2023-04-16T04:02:57;3.03;;;2.72;;
37645;SDS011;23489;49.600;6.138;2023-04-16T04:05:23;2.55;;;2.35;;
37645;SDS011;23489;49.600;6.138;2023-04-16T04:07:50;2.85;;;2.55;;
37645;SDS011;23489;49.600;6.138;2023-04-16T04:10:16;3.72;;;2.60;;
37645;SDS011;23489;49.600;6.138;2023-04-16T04:12:41;2.83;;;2.50;;
37645;SDS011;23489;49.600;6.138;2023-04-16T04:15:07;3.35;;;2.83;;
37645;SDS011;23489;49.600;6.138;2023-04-16T04:17:33;3.05;;;2.40;;
37645;SDS011;23489;49.600;6.138;2023-04-16T04:20:00;2.97;;;2.58;;
37645;SDS011;23489;49.600;6.138;2023-04-16T04:22:25;3.45;;;2.65;;
37645;SDS011;23489;49.600;6.138;2023-04-16T04:24:51;3.35;;;2.58;;
37645;SDS011;23489;49.600;6.138;2023-04-16T04:27:17;4.00;;;2.55;;
37645;SDS011;23489;49.600;6.138;2023-04-16T04:29:42;3.15;;;2.47;;
37645;SDS011;23489;49.600;6.138;2023-04-16T04:32:09;2.95;;;2.50;;
37645;SDS011;23489;49.600;6.138;2023-04-16T04:34:35;3.35;;;2.63;;
37645;SDS011;23489;49.600;6.138;2023-04-16T04:37:01;3.08;;;2.55;;
37645;SDS011;23489;49.600;6.138;2023-04-16T04:39:27;3.90;;;2.92;;
37645;SDS011;23489;49.600;6.138;2023-04-16T04:41:52;3.28;;;2.70;;
37645;SDS011;23489;49.600;6.138;2023-04-16T04:44:18;3.13;;;2.78;;
37645;SDS011;23489;49.600;6.138;2023-04-16T04:46:44;4.40;;;3.17;;
37645;SDS011;23489;49.600;6.138;2023-04-16T04:49:10;4.53;;;3.03;;
37645;SDS011;23489;49.600;6.138;2023-04-16T04:51:36;4.85;;;2.90;;
37645;SDS011;23489;49.600;6.138;2023-04-16T04:54:02;3.15;;;2.80;;
37645;SDS011;23489;49.600;6.138;2023-04-16T04:56:28;4.18;;;3.22;;
37645;SDS011;23489;49.600;6.138;2023-04-16T04:58:53;4.07;;;2.88;;
37645;SDS011;23489;49.600;6.138;2023-04-16T05:01:19;4.47;;;3.40;;
37645;SDS011;23489;49.600;6.138;2023-04-16T05:03:45;4.50;;;2.97;;
37645;SDS011;23489;49.600;6.138;2023-04-16T05:06:11;3.58;;;3.10;;
37645;SDS011;23489;49.600;6.138;2023-04-16T05:08:36;4.10;;;3.13;;
37645;SDS011;23489;49.600;6.138;2023-04-16T05:11:02;4.25;;;3.20;;
37645;SDS011;23489;49.600;6.138;2023-04-16T05:13:27;7.53;;;3.60;;
37645;SDS011;23489;49.600;6.138;2023-04-16T05:15:53;4.93;;;3.30;;
37645;SDS011;23489;49.600;6.138;2023-04-16T05:18:18;4.80;;;3.78;;
37645;SDS011;23489;49.600;6.138;2023-04-16T05:20:44;4.85;;;3.75;;
37645;SDS011;23489;49.600;6.138;2023-04-16T05:23:10;7.20;;;4.07;;
37645;SDS011;23489;49.600;6.138;2023-04-16T05:25:35;4.85;;;3.25;;
37645;SDS011;23489;49.600;6.138;2023-04-16T05:28:01;4.70;;;3.45;;
37645;SDS011;23489;49.600;6.138;2023-04-16T05:30:27;4.65;;;3.40;;
37645;SDS011;23489;49.600;6.138;2023-04-16T05:32:52;4.78;;;3.47;;
37645;SDS011;23489;49.600;6.138;2023-04-16T05:35:18;5.18;;;3.53;;
37645;SDS011;23489;49.600;6.138;2023-04-16T05:37:43;5.47;;;4.10;;
37645;SDS011;23489;49.600;6.138;2023-04-16T05:40:11;4.97;;;3.95;;
37645;SDS011;23489;49.600;6.138;2023-04-16T05:42:37;5.18;;;3.90;;
37645;SDS011;23489;49.600;6.138;2023-04-16T05:45:03;4.55;;;3.80;;
37645;SDS011;23489;49.600;6.138;2023-04-16T05:47:29;4.90;;;3.80;;
37645;SDS011;23489;49.600;6.138;2023-04-16T05:49:55;5.05;;;3.60;;
37645;SDS011;23489;49.600;6.138;2023-04-16T05:52:21;5.15;;;3.55;;
37645;SDS011;23489;49.600;6.138;2023-04-16T05:54:46;5.90;;;4.05;;
37645;SDS011;23489;49.600;6.138;2023-04-16T05:57:12;4.90;;;3.58;;
37645;SDS011;23489;49.600;6.138;2023-04-16T05:59:38;4.68;;;3.80;;
37645;SDS011;23489;49.600;6.138;2023-04-16T06:02:03;5.22;;;3.72;;
37645;SDS011;23489;49.600;6.138;2023-04-16T06:04:29;5.20;;;4.47;;
37645;SDS011;23489;49.600;6.138;2023-04-16T06:06:55;3.88;;;3.45;;
37645;SDS011;23489;49.600;6.138;2023-04-16T06:09:20;5.53;;;3.90;;
37645;SDS011;23489;49.600;6.138;2023-04-16T06:11:46;4.50;;;3.42;;
37645;SDS011;23489;49.600;6.138;2023-04-16T06:14:13;5.13;;;4.15;;
37645;SDS011;23489;49.600;6.138;2023-04-16T06:16:38;5.45;;;4.22;;
37645;SDS011;23489;49.600;6.138;2023-04-16T06:19:04;4.65;;;3.67;;
37645;SDS011;23489;49.600;6.138;2023-04-16T06:21:30;5.93;;;4.00;;
37645;SDS011;23489;49.600;6.138;2023-04-16T06:23:56;5.70;;;3.88;;
37645;SDS011;23489;49.600;6.138;2023-04-16T06:26:21;4.93;;;4.00;;
37645;SDS011;23489;49.600;6.138;2023-04-16T06:28:47;5.45;;;4.15;;
37645;SDS011;23489;49.600;6.138;2023-04-16T06:31:13;4.55;;;3.80;;
37645;SDS011;23489;49.600;6.138;2023-04-16T06:33:39;6.15;;;3.65;;
37645;SDS011;23489;49.600;6.138;2023-04-16T06:36:05;5.20;;;3.80;;
37645;SDS011;23489;49.600;6.138;2023-04-16T06:38:30;4.80;;;3.70;;
37645;SDS011;23489;49.600;6.138;2023-04-16T06:40:56;6.05;;;3.90;;
37645;SDS011;23489;49.600;6.138;2023-04-16T06:43:23;4.78;;;3.83;;
37645;SDS011;23489;49.600;6.138;2023-04-16T06:45:49;6.72;;;4.38;;
37645;SDS011;23489;49.600;6.138;2023-04-16T06:48:14;5.60;;;3.80;;
37645;SDS011;23489;49.600;6.138;2023-04-16T06:50:40;5.55;;;4.25;;
37645;SDS011;23489;49.600;6.138;2023-04-16T06:53:05;5.43;;;4.13;;
37645;SDS011;23489;49.600;6.138;2023-04-16T06:55:31;7.68;;;4.07;;
37645;SDS011;23489;49.600;6.138;2023-04-16T06:57:57;5.63;;;4.10;;
37645;SDS011;23489;49.600;6.138;2023-04-16T07:00:22;5.53;;;3.53;;
37645;SDS011;23489;49.600;6.138;2023-04-16T07:02:48;5.70;;;4.03;;
37645;SDS011;23489;49.600;6.138;2023-04-16T07:05:14;5.28;;;3.80;;
37645;SDS011;23489;49.600;6.138;2023-04-16T07:07:39;6.18;;;4.22;;
37645;SDS011;23489;49.600;6.138;2023-04-16T07:10:05;7.53;;;4.32;;
37645;SDS011;23489;49.600;6.138;2023-04-16T07:12:31;8.10;;;3.67;;
37645;SDS011;23489;49.600;6.138;2023-04-16T07:14:57;4.72;;;3.45;;
37645;SDS011;23489;49.600;6.138;2023-04-16T07:17:23;6.50;;;3.58;;
37645;SDS011;23489;49.600;6.138;2023-04-16T07:19:49;5.10;;;3.75;;
37645;SDS011;23489;49.600;6.138;2023-04-16T07:22:15;5.18;;;3.50;;
37645;SDS011;23489;49.600;6.138;2023-04-16T07:24:40;5.53;;;3.95;;
37645;SDS011;23489;49.600;6.138;2023-04-16T07:27:06;7.32;;;3.95;;
37645;SDS011;23489;49.600;6.138;2023-04-16T07:29:32;5.65;;;3.63;;
37645;SDS011;23489;49.600;6.138;2023-04-16T07:31:57;5.82;;;4.13;;
37645;SDS011;23489;49.600;6.138;2023-04-16T07:34:23;4.80;;;3.33;;
37645;SDS011;23489;49.600;6.138;2023-04-16T07:36:48;6.18;;;3.75;;
37645;SDS011;23489;49.600;6.138;2023-04-16T08:08:20;4.72;;;3.28;;
37645;SDS011;23489;49.600;6.138;2023-04-16T08:10:46;3.85;;;2.88;;
37645;SDS011;23489;49.600;6.138;2023-04-16T08:13:12;4.63;;;3.10;;
37645;SDS011;23489;49.600;6.138;2023-04-16T08:15:37;4.18;;;2.90;;
37645;SDS011;23489;49.600;6.138;2023-04-16T08:18:03;4.68;;;3.08;;
37645;SDS011;23489;49.600;6.138;2023-04-16T08:20:37;4.38;;;3.15;;
37645;SDS011;23489;49.600;6.138;2023-04-16T08:23:03;4.38;;;3.30;;
37645;SDS011;23489;49.600;6.138;2023-04-16T08:25:28;4.43;;;3.10;;
37645;SDS011;23489;49.600;6.138;2023-04-16T08:27:54;4.25;;;2.65;;
37645;SDS011;23489;49.600;6.138;2023-04-16T08:32:45;3.75;;;2.88;;
37645;SDS011;23489;49.600;6.138;2023-04-16T08:35:11;3.22;;;2.53;;
37645;SDS011;23489;49.600;6.138;2023-04-16T08:37:37;3.80;;;2.80;;
37645;SDS011;23489;49.600;6.138;2023-04-16T08:40:03;3.05;;;2.53;;
37645;SDS011;23489;49.600;6.138;2023-04-16T08:42:32;4.43;;;2.97;;
37645;SDS011;23489;49.600;6.138;2023-04-16T08:45:06;3.60;;;2.83;;
37645;SDS011;23489;49.600;6.138;2023-04-16T08:47:34;4.38;;;3.05;;
37645;SDS011;23489;49.600;6.138;2023-04-16T08:50:02;3.42;;;2.67;;
37645;SDS011;23489;49.600;6.138;2023-04-16T08:52:29;4.45;;;2.92;;
37645;SDS011;23489;49.600;6.138;2023-04-16T08:57:37;4.25;;;3.40;;
37645;SDS011;23489;49.600;6.138;2023-04-16T09:00:07;3.55;;;3.15;;
37645;SDS011;23489;49.600;6.138;2023-04-16T09:02:33;4.95;;;3.55;;
37645;SDS011;23489;49.600;6.138;2023-04-16T09:05:00;4.68;;;3.30;;
37645;SDS011;23489;49.600;6.138;2023-04-16T09:07:30;3.70;;;3.20;;
37645;SDS011;23489;49.600;6.138;2023-04-16T09:09:58;3.93;;;3.40;;
37645;SDS011;23489;49.600;6.138;2023-04-16T09:14:51;3.95;;;3.20;;
37645;SDS011;23489;49.600;6.138;2023-04-16T09:17:17;3.05;;;2.55;;
37645;SDS011;23489;49.600;6.138;2023-04-16T09:19:43;3.47;;;2.70;;
37645;SDS011;23489;49.600;6.138;2023-04-16T09:22:10;3.33;;;2.72;;
37645;SDS011;23489;49.600;6.138;2023-04-16T09:24:36;3.35;;;2.95;;
37645;SDS011;23489;49.600;6.138;2023-04-16T09:27:02;3.80;;;3.17;;
37645;SDS011;23489;49.600;6.138;2023-04-16T09:29:35;4.75;;;3.40;;
37645;SDS011;23489;49.600;6.138;2023-04-16T09:32:05;4.50;;;2.97;;
37645;SDS011;23489;49.600;6.138;2023-04-16T09:34:54;3.72;;;3.08;;
37645;SDS011;23489;49.600;6.138;2023-04-16T09:37:21;3.00;;;2.65;;
37645;SDS011;23489;49.600;6.138;2023-04-16T09:42:27;3.40;;;2.72;;
37645;SDS011;23489;49.600;6.138;2023-04-16T09:44:58;3.95;;;2.70;;
37645;SDS011;23489;49.600;6.138;2023-04-16T09:47:40;3.45;;;3.15;;
37645;SDS011;23489;49.600;6.138;2023-04-16T09:50:07;3.55;;;2.55;;
37645;SDS011;23489;49.600;6.138;2023-04-16T09:52:37;4.63;;;2.90;;
37645;SDS011;23489;49.600;6.138;2023-04-16T09:55:03;4.82;;;3.30;;
37645;SDS011;23489;49.600;6.138;2023-04-16T09:57:29;4.20;;;2.88;;
37645;SDS011;23489;49.600;6.138;2023-04-16T10:00:00;3.17;;;2.80;;
37645;SDS011;23489;49.600;6.138;2023-04-16T10:02:30;2.83;;;2.55;;
37645;SDS011;23489;49.600;6.138;2023-04-16T10:04:55;3.30;;;2.72;;
37645;SDS011;23489;49.600;6.138;2023-04-16T10:07:21;3.35;;;2.97;;
37645;SDS011;23489;49.600;6.138;2023-04-16T10:09:51;3.45;;;2.85;;
37645;SDS011;23489;49.600;6.138;2023-04-16T10:12:17;3.22;;;2.67;;
37645;SDS011;23489;49.600;6.138;2023-04-16T10:14:43;3.97;;;2.75;;
37645;SDS011;23489;49.600;6.138;2023-04-16T10:19:35;3.45;;;3.15;;
37645;SDS011;23489;49.600;6.138;2023-04-16T10:22:02;3.13;;;2.83;;
37645;SDS011;23489;49.600;6.138;2023-04-16T10:24:30;3.20;;;2.80;;
37645;SDS011;23489;49.600;6.138;2023-04-16T10:26:57;4.20;;;2.83;;
37645;SDS011;23489;49.600;6.138;2023-04-16T10:29:24;3.33;;;2.88;;
37645;SDS011;23489;49.600;6.138;2023-04-16T10:31:51;3.28;;;2.80;;
37645;SDS011;23489;49.600;6.138;2023-04-16T10:34:18;3.45;;;3.13;;
37645;SDS011;23489;49.600;6.138;2023-04-16T10:36:48;3.55;;;3.20;;
37645;SDS011;23489;49.600;6.138;2023-04-16T10:39:20;3.58;;;3.20;;
37645;SDS011;23489;49.600;6.138;2023-04-16T10:42:05;3.42;;;3.13;;
37645;SDS011;23489;49.600;6.138;2023-04-16T10:44:32;3.38;;;3.03;;
37645;SDS011;23489;49.600;6.138;2023-04-16T10:46:58;4.53;;;4.13;;
37645;SDS011;23489;49.600;6.138;2023-04-16T10:49:24;4.53;;;3.40;;
37645;SDS011;23489;49.600;6.138;2023-04-16T10:51:53;3.35;;;2.92;;
37645;SDS011;23489;49.600;6.138;2023-04-16T10:54:31;3.80;;;3.38;;
37645;SDS011;23489;49.600;6.138;2023-04-16T10:57:03;3.72;;;2.90;;
37645;SDS011;23489;49.600;6.138;2023-04-16T10:59:31;3.58;;;3.17;;
37645;SDS011;23489;49.600;6.138;2023-04-16T11:01:59;4.10;;;3.17;;
37645;SDS011;23489;49.600;6.138;2023-04-16T11:04:32;4.72;;;3.55;;
37645;SDS011;23489;49.600;6.138;2023-04-16T11:09:56;4.40;;;3.53;;
37645;SDS011;23489;49.600;6.138;2023-04-16T11:12:39;5.05;;;3.40;;
37645;SDS011;23489;49.600;6.138;2023-04-16T11:15:06;4.75;;;3.58;;
37645;SDS011;23489;49.600;6.138;2023-04-16T11:20:08;4.03;;;3.38;;
37645;SDS011;23489;49.600;6.138;2023-04-16T11:22:42;4.45;;;3.33;;
37645;SDS011;23489;49.600;6.138;2023-04-16T11:25:11;4.05;;;3.30;;
37645;SDS011;23489;49.600;6.138;2023-04-16T11:27:37;3.85;;;3.17;;
37645;SDS011;23489;49.600;6.138;2023-04-16T11:30:03;4.75;;;3.50;;
37645;SDS011;23489;49.600;6.138;2023-04-16T11:32:31;4.15;;;3.40;;
37645;SDS011;23489;49.600;6.138;2023-04-16T11:34:58;4.18;;;3.60;;
37645;SDS011;23489;49.600;6.138;2023-04-16T11:37:35;4.88;;;3.67;;
37645;SDS011;23489;49.600;6.138;2023-04-16T11:40:02;3.50;;;3.20;;
37645;SDS011;23489;49.600;6.138;2023-04-16T11:42:33;3.63;;;2.70;;
37645;SDS011;23489;49.600;6.138;2023-04-16T11:45:04;3.53;;;2.92;;
37645;SDS011;23489;49.600;6.138;2023-04-16T11:47:31;3.67;;;2.67;;
37645;SDS011;23489;49.600;6.138;2023-04-16T11:50:18;3.47;;;2.58;;
37645;SDS011;23489;49.600;6.138;2023-04-16T11:52:49;3.42;;;2.97;;
37645;SDS011;23489;49.600;6.138;2023-04-16T11:55:15;4.10;;;2.65;;
37645;SDS011;23489;49.600;6.138;2023-04-16T11:57:41;3.28;;;2.97;;
37645;SDS011;23489;49.600;6.138;2023-04-16T12:00:07;3.00;;;2.70;;
37645;SDS011;23489;49.600;6.138;2023-04-16T12:07:58;3.60;;;2.80;;
37645;SDS011;23489;49.600;6.138;2023-04-16T12:10:29;3.22;;;2.70;;
37645;SDS011;23489;49.600;6.138;2023-04-16T12:13:15;3.30;;;2.88;;
37645;SDS011;23489;49.600;6.138;2023-04-16T12:15:45;3.38;;;2.97;;
37645;SDS011;23489;49.600;6.138;2023-04-16T12:18:11;3.45;;;2.97;;
37645;SDS011;23489;49.600;6.138;2023-04-16T12:20:38;5.05;;;3.13;;
37645;SDS011;23489;49.600;6.138;2023-04-16T12:23:07;4.43;;;3.13;;
37645;SDS011;23489;49.600;6.138;2023-04-16T12:25:33;3.05;;;2.65;;
37645;SDS011;23489;49.600;6.138;2023-04-16T12:27:59;3.72;;;3.20;;
37645;SDS011;23489;49.600;6.138;2023-04-16T12:30:25;3.00;;;2.70;;
37645;SDS011;23489;49.600;6.138;2023-04-16T12:32:52;4.55;;;2.70;;
37645;SDS011;23489;49.600;6.138;2023-04-16T12:35:37;3.70;;;3.08;;
37645;SDS011;23489;49.600;6.138;2023-04-16T12:38:05;3.53;;;2.90;;
37645;SDS011;23489;49.600;6.138;2023-04-16T12:43:00;3.33;;;2.72;;
37645;SDS011;23489;49.600;6.138;2023-04-16T12:45:26;3.53;;;2.90;;
37645;SDS011;23489;49.600;6.138;2023-04-16T12:47:52;4.20;;;2.90;;
37645;SDS011;23489;49.600;6.138;2023-04-16T12:50:18;3.50;;;2.70;;
37645;SDS011;23489;49.600;6.138;2023-04-16T12:52:43;3.30;;;2.85;;
37645;SDS011;23489;49.600;6.138;2023-04-16T12:55:09;3.10;;;2.80;;
37645;SDS011;23489;49.600;6.138;2023-04-16T12:57:35;3.88;;;2.97;;
37645;SDS011;23489;49.600;6.138;2023-04-16T13:00:01;3.10;;;2.80;;
37645;SDS011;23489;49.600;6.138;2023-04-16T13:02:28;3.20;;;2.90;;
37645;SDS011;23489;49.600;6.138;2023-04-16T13:04:54;3.33;;;3.00;;
37645;SDS011;23489;49.600;6.138;2023-04-16T13:07:20;3.90;;;2.80;;
37645;SDS011;23489;49.600;6.138;2023-04-16T13:09:45;2.88;;;2.58;;
37645;SDS011;23489;49.600;6.138;2023-04-16T13:12:11;3.20;;;2.60;;
37645;SDS011;23489;49.600;6.138;2023-04-16T13:14:37;2.78;;;2.50;;
37645;SDS011;23489;49.600;6.138;2023-04-16T13:17:03;3.25;;;2.70;;
37645;SDS011;23489;49.600;6.138;2023-04-16T13:19:29;2.88;;;2.58;;
37645;SDS011;23489;49.600;6.138;2023-04-16T13:21:55;3.40;;;2.88;;
37645;SDS011;23489;49.600;6.138;2023-04-16T13:24:21;3.00;;;2.63;;
37645;SDS011;23489;49.600;6.138;2023-04-16T13:26:47;3.13;;;2.80;;
37645;SDS011;23489;49.600;6.138;2023-04-16T13:29:13;2.97;;;2.67;;
37645;SDS011;23489;49.600;6.138;2023-04-16T13:31:39;3.10;;;2.35;;
37645;SDS011;23489;49.600;6.138;2023-04-16T13:34:04;2.60;;;2.35;;
37645;SDS011;23489;49.600;6.138;2023-04-16T13:36:30;3.33;;;2.60;;
37645;SDS011;23489;49.600;6.138;2023-04-16T13:38:57;2.88;;;2.47;;
37645;SDS011;23489;49.600;6.138;2023-04-16T13:41:23;2.95;;;2.50;;
37645;SDS011;23489;49.600;6.138;2023-04-16T13:43:49;3.65;;;2.60;;
37645;SDS011;23489;49.600;6.138;2023-04-16T13:46:15;4.78;;;3.13;;
37645;SDS011;23489;49.600;6.138;2023-04-16T13:48:40;2.75;;;2.38;;
37645;SDS011;23489;49.600;6.138;2023-04-16T13:51:06;3.08;;;2.63;;
37645;SDS011;23489;49.600;6.138;2023-04-16T13:53:32;2.85;;;2.53;;
37645;SDS011;23489;49.600;6.138;2023-04-16T13:55:58;3.15;;;2.50;;
37645;SDS011;23489;49.600;6.138;2023-04-16T13:58:24;3.28;;;2.25;;
37645;SDS011;23489;49.600;6.138;2023-04-16T14:00:50;3.60;;;2.78;;
37645;SDS011;23489;49.600;6.138;2023-04-16T14:03:15;4.22;;;2.63;;
37645;SDS011;23489;49.600;6.138;2023-04-16T14:05:41;3.10;;;2.65;;
37645;SDS011;23489;49.600;6.138;2023-04-16T14:08:07;3.28;;;2.67;;
37645;SDS011;23489;49.600;6.138;2023-04-16T14:10:34;3.00;;;2.67;;
37645;SDS011;23489;49.600;6.138;2023-04-16T14:12:59;2.90;;;2.60;;
37645;SDS011;23489;49.600;6.138;2023-04-16T14:15:25;3.47;;;2.70;;
37645;SDS011;23489;49.600;6.138;2023-04-16T14:17:53;2.40;;;2.20;;
37645;SDS011;23489;49.600;6.138;2023-04-16T14:20:19;3.33;;;2.40;;
37645;SDS011;23489;49.600;6.138;2023-04-16T14:22:45;2.72;;;2.50;;
37645;SDS011;23489;49.600;6.138;2023-04-16T14:25:11;3.28;;;2.60;;
37645;SDS011;23489;49.600;6.138;2023-04-16T14:27:36;2.92;;;2.60;;
37645;SDS011;23489;49.600;6.138;2023-04-16T14:30:02;3.13;;;2.45;;
37645;SDS011;23489;49.600;6.138;2023-04-16T14:32:29;4.88;;;2.20;;
37645;SDS011;23489;49.600;6.138;2023-04-16T14:34:54;2.58;;;2.38;;
37645;SDS011;23489;49.600;6.138;2023-04-16T14:37:20;2.30;;;2.10;;
37645;SDS011;23489;49.600;6.138;2023-04-16T14:39:46;3.03;;;2.50;;
37645;SDS011;23489;49.600;6.138;2023-04-16T14:42:11;3.05;;;2.75;;
37645;SDS011;23489;49.600;6.138;2023-04-16T14:44:37;2.90;;;2.70;;
37645;SDS011;23489;49.600;6.138;2023-04-16T14:47:03;4.25;;;2.72;;
37645;SDS011;23489;49.600;6.138;2023-04-16T14:49:28;2.92;;;2.55;;
37645;SDS011;23489;49.600;6.138;2023-04-16T14:51:54;2.97;;;2.67;;
37645;SDS011;23489;49.600;6.138;2023-04-16T14:54:21;3.60;;;2.90;;
37645;SDS011;23489;49.600;6.138;2023-04-16T14:56:46;3.00;;;2.70;;
37645;SDS011;23489;49.600;6.138;2023-04-16T14:59:13;3.55;;;2.97;;
37645;SDS011;23489;49.600;6.138;2023-04-16T15:01:38;3.47;;;2.92;;
37645;SDS011;23489;49.600;6.138;2023-04-16T15:04:04;4.65;;;3.17;;
37645;SDS011;23489;49.600;6.138;2023-04-16T15:06:30;3.95;;;3.03;;
37645;SDS011;23489;49.600;6.138;2023-04-16T15:08:57;5.47;;;3.65;;
37645;SDS011;23489;49.600;6.138;2023-04-16T15:11:22;4.35;;;3.63;;
37645;SDS011;23489;49.600;6.138;2023-04-16T15:28:22;5.07;;;3.85;;
37645;SDS011;23489;49.600;6.138;2023-04-16T16:48:36;12.50;;;7.63;;
37645;SDS011;23489;49.600;6.138;2023-04-16T16:51:01;12.27;;;8.40;;
37645;SDS011;23489;49.600;6.138;2023-04-16T16:53:27;11.75;;;7.95;;
37645;SDS011;23489;49.600;6.138;2023-04-16T16:55:52;11.73;;;8.55;;
37645;SDS011;23489;49.600;6.138;2023-04-16T17:15:17;14.68;;;9.15;;
37645;SDS011;23489;49.600;6.138;2023-04-16T17:17:43;12.48;;;9.20;;
37645;SDS011;23489;49.600;6.138;2023-04-16T17:22:36;12.02;;;8.93;;
37645;SDS011;23489;49.600;6.138;2023-04-16T17:25:03;12.90;;;9.63;;
37645;SDS011;23489;49.600;6.138;2023-04-16T17:27:29;13.50;;;9.27;;
37645;SDS011;23489;49.600;6.138;2023-04-16T17:29:58;13.13;;;9.35;;
37645;SDS011;23489;49.600;6.138;2023-04-16T17:32:26;11.45;;;9.63;;
37645;SDS011;23489;49.600;6.138;2023-04-16T17:34:53;13.35;;;9.93;;
37645;SDS011;23489;49.600;6.138;2023-04-16T17:37:20;14.25;;;9.70;;
37645;SDS011;23489;49.600;6.138;2023-04-16T17:39:46;15.80;;;9.90;;
37645;SDS011;23489;49.600;6.138;2023-04-16T17:42:12;11.25;;;9.13;;